sensor_id;sensor_type;location;lat;lon;timestamp;P1;durP1;ratioP1;P2;durP2;ratioP2
173;SDS011;75;48.784;9.364;2022-11-15T00:00:49;7.60;;;3.80;;
173;SDS011;75;48.784;9.364;2022-11-15T00:03:17;8.67;;;4.03;;
173;SDS011;75;48.784;9.364;2022-11-15T00:05:45;8.03;;;4.53;;
173;SDS011;75;48.784;9.364;2022-11-15T00:08:12;5.70;;;3.60;;
173;SDS011;75;48.784;9.364;2022-11-15T00:10:40;5.83;;;3.80;;
173;SDS011;75;48.784;9.364;2022-11-15T00:13:08;8.20;;;4.00;;
173;SDS011;75;48.784;9.364;2022-11-15T00:15:36;6.67;;;3.97;;
173;SDS011;75;48.784;9.364;2022-11-15T00:18:03;7.13;;;3.67;;
173;SDS011;75;48.784;9.364;2022-11-15T00:20:31;6.00;;;3.97;;
173;SDS011;75;48.784;9.364;2022-11-15T00:23:00;7.10;;;3.60;;
173;SDS011;75;48.784;9.364;2022-11-15T00:25:27;5.70;;;3.47;;
173;SDS011;75;48.784;9.364;2022-11-15T00:27:55;8.67;;;3.67;;
173;SDS011;75;48.784;9.364;2022-11-15T00:30:23;5.53;;;3.77;;
173;SDS011;75;48.784;9.364;2022-11-15T00:32:50;5.63;;;3.70;;
173;SDS011;75;48.784;9.364;2022-11-15T00:35:18;8.83;;;3.80;;
173;SDS011;75;48.784;9.364;2022-11-15T00:37:45;5.40;;;3.60;;
173;SDS011;75;48.784;9.364;2022-11-15T00:40:14;6.27;;;3.80;;
173;SDS011;75;48.784;9.364;2022-11-15T00:42:41;9.00;;;3.77;;
173;SDS011;75;48.784;9.364;2022-11-15T00:45:09;7.27;;;3.83;;
173;SDS011;75;48.784;9.364;2022-11-15T00:47:36;6.40;;;3.87;;
173;SDS011;75;48.784;9.364;2022-11-15T00:50:04;5.20;;;3.53;;
173;SDS011;75;48.784;9.364;2022-11-15T00:52:31;6.23;;;3.77;;
173;SDS011;75;48.784;9.364;2022-11-15T00:54:58;6.13;;;3.67;;
173;SDS011;75;48.784;9.364;2022-11-15T00:57:26;6.90;;;3.63;;
173;SDS011;75;48.784;9.364;2022-11-15T00:59:53;7.77;;;3.60;;
173;SDS011;75;48.784;9.364;2022-11-15T01:02:20;5.10;;;3.40;;
173;SDS011;75;48.784;9.364;2022-11-15T01:04:48;5.53;;;3.93;;
173;SDS011;75;48.784;9.364;2022-11-15T01:07:15;6.60;;;3.63;;
173;SDS011;75;48.784;9.364;2022-11-15T01:09:42;5.50;;;3.30;;
173;SDS011;75;48.784;9.364;2022-11-15T01:12:10;8.30;;;3.70;;
173;SDS011;75;48.784;9.364;2022-11-15T01:14:37;8.53;;;3.60;;
173;SDS011;75;48.784;9.364;2022-11-15T01:17:04;5.17;;;3.50;;
173;SDS011;75;48.784;9.364;2022-11-15T01:19:32;6.90;;;3.93;;
173;SDS011;75;48.784;9.364;2022-11-15T01:21:59;6.03;;;4.10;;
173;SDS011;75;48.784;9.364;2022-11-15T01:24:26;6.37;;;3.90;;
173;SDS011;75;48.784;9.364;2022-11-15T01:26:54;5.60;;;3.77;;
173;SDS011;75;48.784;9.364;2022-11-15T01:29:21;9.03;;;3.90;;
173;SDS011;75;48.784;9.364;2022-11-15T01:31:49;5.30;;;3.60;;
173;SDS011;75;48.784;9.364;2022-11-15T01:34:16;6.70;;;4.03;;
173;SDS011;75;48.784;9.364;2022-11-15T01:36:43;6.17;;;4.20;;
173;SDS011;75;48.784;9.364;2022-11-15T01:39:11;5.97;;;4.00;;
173;SDS011;75;48.784;9.364;2022-11-15T01:41:38;8.30;;;4.17;;
173;SDS011;75;48.784;9.364;2022-11-15T01:46:51;7.83;;;4.40;;
173;SDS011;75;48.784;9.364;2022-11-15T01:49:19;8.43;;;3.87;;
173;SDS011;75;48.784;9.364;2022-11-15T01:51:47;7.73;;;4.40;;
173;SDS011;75;48.784;9.364;2022-11-15T01:54:15;5.93;;;3.90;;
173;SDS011;75;48.784;9.364;2022-11-15T01:56:45;7.50;;;4.17;;
173;SDS011;75;48.784;9.364;2022-11-15T01:59:13;9.37;;;4.20;;
173;SDS011;75;48.784;9.364;2022-11-15T02:01:41;7.27;;;4.27;;
173;SDS011;75;48.784;9.364;2022-11-15T02:04:10;7.03;;;4.50;;
173;SDS011;75;48.784;9.364;2022-11-15T02:06:38;6.30;;;4.20;;
173;SDS011;75;48.784;9.364;2022-11-15T02:09:06;6.13;;;4.40;;
173;SDS011;75;48.784;9.364;2022-11-15T02:11:34;8.33;;;4.40;;
173;SDS011;75;48.784;9.364;2022-11-15T02:14:01;7.50;;;4.50;;
173;SDS011;75;48.784;9.364;2022-11-15T02:16:45;8.97;;;4.50;;
173;SDS011;75;48.784;9.364;2022-11-15T02:22:22;7.70;;;4.70;;
173;SDS011;75;48.784;9.364;2022-11-15T02:32:54;9.83;;;4.37;;
173;SDS011;75;48.784;9.364;2022-11-15T02:38:22;8.43;;;4.70;;
173;SDS011;75;48.784;9.364;2022-11-15T02:40:53;8.47;;;4.80;;
173;SDS011;75;48.784;9.364;2022-11-15T02:44:26;6.77;;;4.70;;
173;SDS011;75;48.784;9.364;2022-11-15T02:46:33;7.20;;;4.57;;
173;SDS011;75;48.784;9.364;2022-11-15T02:49:20;6.90;;;4.70;;
173;SDS011;75;48.784;9.364;2022-11-15T02:51:48;7.63;;;4.60;;
173;SDS011;75;48.784;9.364;2022-11-15T02:54:20;8.87;;;4.20;;
173;SDS011;75;48.784;9.364;2022-11-15T02:56:49;6.80;;;5.00;;
173;SDS011;75;48.784;9.364;2022-11-15T03:04:36;7.27;;;4.47;;
173;SDS011;75;48.784;9.364;2022-11-15T03:07:07;7.00;;;4.73;;
173;SDS011;75;48.784;9.364;2022-11-15T03:09:52;7.50;;;4.67;;
173;SDS011;75;48.784;9.364;2022-11-15T03:12:27;7.87;;;4.93;;
173;SDS011;75;48.784;9.364;2022-11-15T03:15:01;8.67;;;5.03;;
173;SDS011;75;48.784;9.364;2022-11-15T03:18:16;9.20;;;4.93;;
173;SDS011;75;48.784;9.364;2022-11-15T03:20:22;7.40;;;4.40;;
173;SDS011;75;48.784;9.364;2022-11-15T03:22:50;7.77;;;5.33;;
173;SDS011;75;48.784;9.364;2022-11-15T03:25:20;7.53;;;5.13;;
173;SDS011;75;48.784;9.364;2022-11-15T03:27:51;6.93;;;4.83;;
173;SDS011;75;48.784;9.364;2022-11-15T03:30:19;11.17;;;5.47;;
173;SDS011;75;48.784;9.364;2022-11-15T03:32:47;9.20;;;5.00;;
173;SDS011;75;48.784;9.364;2022-11-15T03:35:20;7.63;;;5.70;;
173;SDS011;75;48.784;9.364;2022-11-15T03:37:53;8.93;;;5.77;;
173;SDS011;75;48.784;9.364;2022-11-15T03:43:06;9.37;;;5.90;;
173;SDS011;75;48.784;9.364;2022-11-15T03:45:41;7.97;;;5.40;;
173;SDS011;75;48.784;9.364;2022-11-15T03:48:12;9.30;;;5.77;;
173;SDS011;75;48.784;9.364;2022-11-15T03:50:41;7.90;;;5.60;;
173;SDS011;75;48.784;9.364;2022-11-15T03:53:08;7.97;;;5.27;;
173;SDS011;75;48.784;9.364;2022-11-15T03:55:36;7.70;;;5.20;;
173;SDS011;75;48.784;9.364;2022-11-15T03:58:03;7.97;;;4.83;;
173;SDS011;75;48.784;9.364;2022-11-15T04:00:31;7.90;;;5.03;;
173;SDS011;75;48.784;9.364;2022-11-15T04:02:58;33.83;;;15.47;;
173;SDS011;75;48.784;9.364;2022-11-15T04:05:25;38.83;;;16.63;;
173;SDS011;75;48.784;9.364;2022-11-15T04:07:53;34.20;;;16.90;;
173;SDS011;75;48.784;9.364;2022-11-15T04:10:20;32.23;;;14.83;;
173;SDS011;75;48.784;9.364;2022-11-15T04:12:47;42.67;;;15.93;;
173;SDS011;75;48.784;9.364;2022-11-15T04:15:16;35.77;;;15.03;;
173;SDS011;75;48.784;9.364;2022-11-15T04:17:44;28.40;;;12.63;;
173;SDS011;75;48.784;9.364;2022-11-15T04:20:16;18.60;;;8.60;;
173;SDS011;75;48.784;9.364;2022-11-15T04:23:03;19.90;;;6.83;;
173;SDS011;75;48.784;9.364;2022-11-15T04:25:50;11.73;;;6.80;;
173;SDS011;75;48.784;9.364;2022-11-15T04:28:18;11.60;;;6.20;;
173;SDS011;75;48.784;9.364;2022-11-15T04:30:46;10.60;;;7.07;;
173;SDS011;75;48.784;9.364;2022-11-15T04:33:13;10.13;;;5.83;;
173;SDS011;75;48.784;9.364;2022-11-15T04:35:41;11.23;;;6.27;;
173;SDS011;75;48.784;9.364;2022-11-15T04:38:09;10.50;;;6.30;;
173;SDS011;75;48.784;9.364;2022-11-15T04:40:37;10.43;;;5.70;;
173;SDS011;75;48.784;9.364;2022-11-15T04:43:05;7.30;;;5.23;;
173;SDS011;75;48.784;9.364;2022-11-15T04:45:32;8.70;;;5.00;;
173;SDS011;75;48.784;9.364;2022-11-15T04:47:59;6.73;;;4.93;;
173;SDS011;75;48.784;9.364;2022-11-15T04:50:27;9.00;;;4.77;;
173;SDS011;75;48.784;9.364;2022-11-15T04:52:54;7.37;;;5.00;;
173;SDS011;75;48.784;9.364;2022-11-15T04:55:21;8.17;;;5.37;;
173;SDS011;75;48.784;9.364;2022-11-15T04:57:56;9.40;;;5.00;;
173;SDS011;75;48.784;9.364;2022-11-15T05:00:25;9.40;;;4.90;;
173;SDS011;75;48.784;9.364;2022-11-15T05:02:53;8.63;;;4.90;;
173;SDS011;75;48.784;9.364;2022-11-15T05:05:39;8.33;;;5.27;;
173;SDS011;75;48.784;9.364;2022-11-15T05:08:06;6.93;;;4.67;;
173;SDS011;75;48.784;9.364;2022-11-15T05:10:33;9.27;;;6.70;;
173;SDS011;75;48.784;9.364;2022-11-15T05:13:01;9.53;;;5.40;;
173;SDS011;75;48.784;9.364;2022-11-15T05:15:28;8.77;;;5.53;;
173;SDS011;75;48.784;9.364;2022-11-15T05:17:58;8.50;;;4.63;;
173;SDS011;75;48.784;9.364;2022-11-15T05:20:28;7.77;;;5.00;;
173;SDS011;75;48.784;9.364;2022-11-15T05:22:56;6.93;;;5.03;;
173;SDS011;75;48.784;9.364;2022-11-15T05:25:23;8.87;;;5.00;;
173;SDS011;75;48.784;9.364;2022-11-15T05:27:51;8.50;;;4.60;;
173;SDS011;75;48.784;9.364;2022-11-15T05:30:18;7.33;;;5.23;;
173;SDS011;75;48.784;9.364;2022-11-15T05:32:46;6.80;;;5.47;;
173;SDS011;75;48.784;9.364;2022-11-15T05:35:34;8.67;;;5.70;;
173;SDS011;75;48.784;9.364;2022-11-15T05:38:01;11.87;;;8.30;;
173;SDS011;75;48.784;9.364;2022-11-15T05:40:28;15.17;;;11.23;;
173;SDS011;75;48.784;9.364;2022-11-15T05:42:57;15.27;;;9.80;;
173;SDS011;75;48.784;9.364;2022-11-15T05:45:24;14.30;;;8.63;;
173;SDS011;75;48.784;9.364;2022-11-15T05:47:52;9.83;;;6.93;;
173;SDS011;75;48.784;9.364;2022-11-15T05:50:21;10.23;;;7.60;;
173;SDS011;75;48.784;9.364;2022-11-15T05:52:49;13.70;;;8.23;;
173;SDS011;75;48.784;9.364;2022-11-15T05:55:17;12.90;;;7.40;;
173;SDS011;75;48.784;9.364;2022-11-15T05:57:44;9.27;;;6.83;;
173;SDS011;75;48.784;9.364;2022-11-15T06:00:12;7.20;;;5.83;;
173;SDS011;75;48.784;9.364;2022-11-15T06:02:39;9.60;;;6.80;;
173;SDS011;75;48.784;9.364;2022-11-15T06:05:07;11.37;;;7.40;;
173;SDS011;75;48.784;9.364;2022-11-15T06:07:34;10.20;;;6.90;;
173;SDS011;75;48.784;9.364;2022-11-15T06:10:01;10.40;;;7.03;;
173;SDS011;75;48.784;9.364;2022-11-15T06:12:29;12.90;;;7.23;;
173;SDS011;75;48.784;9.364;2022-11-15T06:14:56;9.87;;;6.80;;
173;SDS011;75;48.784;9.364;2022-11-15T06:17:23;11.47;;;6.70;;
173;SDS011;75;48.784;9.364;2022-11-15T06:19:51;10.70;;;7.40;;
173;SDS011;75;48.784;9.364;2022-11-15T06:22:18;10.07;;;6.83;;
173;SDS011;75;48.784;9.364;2022-11-15T06:24:45;14.93;;;8.70;;
173;SDS011;75;48.784;9.364;2022-11-15T06:27:13;13.17;;;9.03;;
173;SDS011;75;48.784;9.364;2022-11-15T06:29:40;18.00;;;10.33;;
173;SDS011;75;48.784;9.364;2022-11-15T06:32:08;15.20;;;10.23;;
173;SDS011;75;48.784;9.364;2022-11-15T06:34:35;15.63;;;9.33;;
173;SDS011;75;48.784;9.364;2022-11-15T06:37:02;16.00;;;9.50;;
173;SDS011;75;48.784;9.364;2022-11-15T06:39:30;14.60;;;9.23;;
173;SDS011;75;48.784;9.364;2022-11-15T06:41:57;14.03;;;9.43;;
173;SDS011;75;48.784;9.364;2022-11-15T06:44:24;15.90;;;10.30;;
173;SDS011;75;48.784;9.364;2022-11-15T06:46:52;13.20;;;8.70;;
173;SDS011;75;48.784;9.364;2022-11-15T06:49:19;12.83;;;7.90;;
173;SDS011;75;48.784;9.364;2022-11-15T06:51:46;9.77;;;6.50;;
173;SDS011;75;48.784;9.364;2022-11-15T06:54:14;9.23;;;6.07;;
173;SDS011;75;48.784;9.364;2022-11-15T06:56:41;10.20;;;7.03;;
173;SDS011;75;48.784;9.364;2022-11-15T06:59:08;14.07;;;6.70;;
173;SDS011;75;48.784;9.364;2022-11-15T07:01:36;12.13;;;8.50;;
173;SDS011;75;48.784;9.364;2022-11-15T07:04:03;10.17;;;7.37;;
173;SDS011;75;48.784;9.364;2022-11-15T07:06:30;12.70;;;8.73;;
173;SDS011;75;48.784;9.364;2022-11-15T07:08:58;10.80;;;7.33;;
173;SDS011;75;48.784;9.364;2022-11-15T07:11:25;15.23;;;8.43;;
173;SDS011;75;48.784;9.364;2022-11-15T07:13:52;11.40;;;7.70;;
173;SDS011;75;48.784;9.364;2022-11-15T07:16:20;11.67;;;7.80;;
173;SDS011;75;48.784;9.364;2022-11-15T07:18:47;12.03;;;8.00;;
173;SDS011;75;48.784;9.364;2022-11-15T07:21:14;11.27;;;7.00;;
173;SDS011;75;48.784;9.364;2022-11-15T07:23:42;13.20;;;7.20;;
173;SDS011;75;48.784;9.364;2022-11-15T07:26:09;9.73;;;6.53;;
173;SDS011;75;48.784;9.364;2022-11-15T07:28:36;19.10;;;9.80;;
173;SDS011;75;48.784;9.364;2022-11-15T07:31:04;27.63;;;13.10;;
173;SDS011;75;48.784;9.364;2022-11-15T07:33:33;32.13;;;14.97;;
173;SDS011;75;48.784;9.364;2022-11-15T07:36:04;24.53;;;12.97;;
173;SDS011;75;48.784;9.364;2022-11-15T07:38:33;14.43;;;8.53;;
173;SDS011;75;48.784;9.364;2022-11-15T07:41:02;13.10;;;8.77;;
173;SDS011;75;48.784;9.364;2022-11-15T07:43:29;13.20;;;9.80;;
173;SDS011;75;48.784;9.364;2022-11-15T07:45:59;13.07;;;9.30;;
173;SDS011;75;48.784;9.364;2022-11-15T07:48:31;12.80;;;10.03;;
173;SDS011;75;48.784;9.364;2022-11-15T07:50:58;12.40;;;8.63;;
173;SDS011;75;48.784;9.364;2022-11-15T07:53:25;9.43;;;5.13;;
173;SDS011;75;48.784;9.364;2022-11-15T07:55:53;9.07;;;6.60;;
173;SDS011;75;48.784;9.364;2022-11-15T07:58:20;10.93;;;6.30;;
173;SDS011;75;48.784;9.364;2022-11-15T08:00:47;12.60;;;6.63;;
173;SDS011;75;48.784;9.364;2022-11-15T08:03:15;13.20;;;6.97;;
173;SDS011;75;48.784;9.364;2022-11-15T08:05:43;31.87;;;9.67;;
173;SDS011;75;48.784;9.364;2022-11-15T08:08:16;20.83;;;7.80;;
173;SDS011;75;48.784;9.364;2022-11-15T08:10:44;18.50;;;7.07;;
173;SDS011;75;48.784;9.364;2022-11-15T08:13:12;14.33;;;7.17;;
173;SDS011;75;48.784;9.364;2022-11-15T08:15:39;13.53;;;7.30;;
173;SDS011;75;48.784;9.364;2022-11-15T08:18:11;12.90;;;6.90;;
173;SDS011;75;48.784;9.364;2022-11-15T08:20:39;15.33;;;7.50;;
173;SDS011;75;48.784;9.364;2022-11-15T08:23:06;14.07;;;9.10;;
173;SDS011;75;48.784;9.364;2022-11-15T08:25:34;17.37;;;9.27;;
173;SDS011;75;48.784;9.364;2022-11-15T08:28:03;16.07;;;8.27;;
173;SDS011;75;48.784;9.364;2022-11-15T08:30:33;14.80;;;8.63;;
173;SDS011;75;48.784;9.364;2022-11-15T08:33:02;22.07;;;13.63;;
173;SDS011;75;48.784;9.364;2022-11-15T08:35:30;20.13;;;11.00;;
173;SDS011;75;48.784;9.364;2022-11-15T08:37:57;27.27;;;20.53;;
173;SDS011;75;48.784;9.364;2022-11-15T08:40:24;25.43;;;20.00;;
173;SDS011;75;48.784;9.364;2022-11-15T08:42:53;22.03;;;15.83;;
173;SDS011;75;48.784;9.364;2022-11-15T08:45:20;14.77;;;10.87;;
173;SDS011;75;48.784;9.364;2022-11-15T08:47:47;15.10;;;9.77;;
173;SDS011;75;48.784;9.364;2022-11-15T08:50:15;16.60;;;8.60;;
173;SDS011;75;48.784;9.364;2022-11-15T08:52:42;14.97;;;8.00;;
173;SDS011;75;48.784;9.364;2022-11-15T08:55:10;14.10;;;8.40;;
173;SDS011;75;48.784;9.364;2022-11-15T08:57:37;13.77;;;8.10;;
173;SDS011;75;48.784;9.364;2022-11-15T09:00:05;12.10;;;7.20;;
173;SDS011;75;48.784;9.364;2022-11-15T09:02:32;15.00;;;7.40;;
173;SDS011;75;48.784;9.364;2022-11-15T09:05:00;12.57;;;7.43;;
173;SDS011;75;48.784;9.364;2022-11-15T09:07:27;14.80;;;7.50;;
173;SDS011;75;48.784;9.364;2022-11-15T09:09:56;14.83;;;8.70;;
173;SDS011;75;48.784;9.364;2022-11-15T09:12:23;14.57;;;7.90;;
173;SDS011;75;48.784;9.364;2022-11-15T09:14:52;21.30;;;10.03;;
173;SDS011;75;48.784;9.364;2022-11-15T09:17:19;19.40;;;8.90;;
173;SDS011;75;48.784;9.364;2022-11-15T09:19:46;16.97;;;8.77;;
173;SDS011;75;48.784;9.364;2022-11-15T09:22:14;15.00;;;8.57;;
173;SDS011;75;48.784;9.364;2022-11-15T09:24:41;13.20;;;8.10;;
173;SDS011;75;48.784;9.364;2022-11-15T09:27:08;15.70;;;8.33;;
173;SDS011;75;48.784;9.364;2022-11-15T09:29:36;19.93;;;10.40;;
173;SDS011;75;48.784;9.364;2022-11-15T09:32:03;19.67;;;10.10;;
173;SDS011;75;48.784;9.364;2022-11-15T09:34:31;18.17;;;9.07;;
173;SDS011;75;48.784;9.364;2022-11-15T09:36:58;10.47;;;6.37;;
173;SDS011;75;48.784;9.364;2022-11-15T09:39:25;10.30;;;6.10;;
173;SDS011;75;48.784;9.364;2022-11-15T09:42:05;12.80;;;7.17;;
173;SDS011;75;48.784;9.364;2022-11-15T09:49:58;14.67;;;8.10;;
173;SDS011;75;48.784;9.364;2022-11-15T09:52:27;12.00;;;6.30;;
173;SDS011;75;48.784;9.364;2022-11-15T09:54:54;10.73;;;6.23;;
173;SDS011;75;48.784;9.364;2022-11-15T10:00:20;16.27;;;7.87;;
173;SDS011;75;48.784;9.364;2022-11-15T10:02:58;15.33;;;7.83;;
173;SDS011;75;48.784;9.364;2022-11-15T10:05:38;10.73;;;6.40;;
173;SDS011;75;48.784;9.364;2022-11-15T10:11:00;11.87;;;6.50;;
173;SDS011;75;48.784;9.364;2022-11-15T10:13:30;18.53;;;6.77;;
173;SDS011;75;48.784;9.364;2022-11-15T10:16:43;10.60;;;6.50;;
173;SDS011;75;48.784;9.364;2022-11-15T10:18:58;14.83;;;7.80;;
173;SDS011;75;48.784;9.364;2022-11-15T10:21:34;12.07;;;6.47;;
173;SDS011;75;48.784;9.364;2022-11-15T10:24:11;8.43;;;5.90;;
173;SDS011;75;48.784;9.364;2022-11-15T10:26:44;10.30;;;6.57;;
173;SDS011;75;48.784;9.364;2022-11-15T10:29:17;10.60;;;6.70;;
173;SDS011;75;48.784;9.364;2022-11-15T10:31:44;11.50;;;6.60;;
173;SDS011;75;48.784;9.364;2022-11-15T10:34:19;11.50;;;6.17;;
173;SDS011;75;48.784;9.364;2022-11-15T10:36:54;10.83;;;6.27;;
173;SDS011;75;48.784;9.364;2022-11-15T10:39:22;14.10;;;7.30;;
173;SDS011;75;48.784;9.364;2022-11-15T10:41:49;14.93;;;7.27;;
173;SDS011;75;48.784;9.364;2022-11-15T10:46:46;15.47;;;7.57;;
173;SDS011;75;48.784;9.364;2022-11-15T10:54:12;10.27;;;5.90;;
173;SDS011;75;48.784;9.364;2022-11-15T10:56:40;9.23;;;5.50;;
173;SDS011;75;48.784;9.364;2022-11-15T10:59:14;10.43;;;5.97;;
173;SDS011;75;48.784;9.364;2022-11-15T11:01:46;10.53;;;5.90;;
173;SDS011;75;48.784;9.364;2022-11-15T11:04:14;14.20;;;6.97;;
173;SDS011;75;48.784;9.364;2022-11-15T11:06:57;10.67;;;6.20;;
173;SDS011;75;48.784;9.364;2022-11-15T11:09:34;10.63;;;5.63;;
173;SDS011;75;48.784;9.364;2022-11-15T11:12:03;10.50;;;5.60;;
173;SDS011;75;48.784;9.364;2022-11-15T11:14:31;8.90;;;5.57;;
173;SDS011;75;48.784;9.364;2022-11-15T11:19:38;9.50;;;6.17;;
173;SDS011;75;48.784;9.364;2022-11-15T11:22:23;8.67;;;5.53;;
173;SDS011;75;48.784;9.364;2022-11-15T11:25:16;9.80;;;6.23;;
173;SDS011;75;48.784;9.364;2022-11-15T11:35:50;15.37;;;6.40;;
173;SDS011;75;48.784;9.364;2022-11-15T11:48:52;5.03;;;3.50;;
173;SDS011;75;48.784;9.364;2022-11-15T11:51:25;4.50;;;3.27;;
173;SDS011;75;48.784;9.364;2022-11-15T11:53:57;6.67;;;4.00;;
173;SDS011;75;48.784;9.364;2022-11-15T11:56:29;8.83;;;5.37;;
173;SDS011;75;48.784;9.364;2022-11-15T11:59:05;7.37;;;4.97;;
173;SDS011;75;48.784;9.364;2022-11-15T12:01:36;7.33;;;4.23;;
173;SDS011;75;48.784;9.364;2022-11-15T12:06:48;7.93;;;3.80;;
173;SDS011;75;48.784;9.364;2022-11-15T12:14:36;5.60;;;4.10;;
173;SDS011;75;48.784;9.364;2022-11-15T12:17:07;6.73;;;4.40;;
173;SDS011;75;48.784;9.364;2022-11-15T12:19:35;5.27;;;3.50;;
173;SDS011;75;48.784;9.364;2022-11-15T12:22:04;5.67;;;3.40;;
173;SDS011;75;48.784;9.364;2022-11-15T12:24:44;4.40;;;3.00;;
173;SDS011;75;48.784;9.364;2022-11-15T12:29:50;6.23;;;3.53;;
173;SDS011;75;48.784;9.364;2022-11-15T12:32:23;5.13;;;3.50;;
173;SDS011;75;48.784;9.364;2022-11-15T12:34:51;5.17;;;3.53;;
173;SDS011;75;48.784;9.364;2022-11-15T12:45:42;4.80;;;3.43;;
173;SDS011;75;48.784;9.364;2022-11-15T12:58:43;4.20;;;3.27;;
173;SDS011;75;48.784;9.364;2022-11-15T13:07:00;4.50;;;3.20;;
173;SDS011;75;48.784;9.364;2022-11-15T13:11:57;6.33;;;3.20;;
173;SDS011;75;48.784;9.364;2022-11-15T13:20:02;6.67;;;3.17;;
173;SDS011;75;48.784;9.364;2022-11-15T13:22:38;4.27;;;2.87;;
173;SDS011;75;48.784;9.364;2022-11-15T13:27:48;4.80;;;3.20;;
173;SDS011;75;48.784;9.364;2022-11-15T13:30:21;5.53;;;3.20;;
173;SDS011;75;48.784;9.364;2022-11-15T13:32:48;4.73;;;3.20;;
173;SDS011;75;48.784;9.364;2022-11-15T13:35:26;5.13;;;2.93;;
173;SDS011;75;48.784;9.364;2022-11-15T13:37:55;4.87;;;3.23;;
173;SDS011;75;48.784;9.364;2022-11-15T13:42:53;5.60;;;3.33;;
173;SDS011;75;48.784;9.364;2022-11-15T13:45:21;5.30;;;3.30;;
173;SDS011;75;48.784;9.364;2022-11-15T13:47:55;4.90;;;3.37;;
173;SDS011;75;48.784;9.364;2022-11-15T13:50:27;6.43;;;3.60;;
173;SDS011;75;48.784;9.364;2022-11-15T13:52:56;7.03;;;3.87;;
173;SDS011;75;48.784;9.364;2022-11-15T13:55:24;5.20;;;3.93;;
173;SDS011;75;48.784;9.364;2022-11-15T13:57:59;7.63;;;4.23;;
173;SDS011;75;48.784;9.364;2022-11-15T14:02:54;6.53;;;4.50;;
173;SDS011;75;48.784;9.364;2022-11-15T14:05:23;7.97;;;4.70;;
173;SDS011;75;48.784;9.364;2022-11-15T14:07:54;7.43;;;4.00;;
173;SDS011;75;48.784;9.364;2022-11-15T14:10:29;9.80;;;4.70;;
173;SDS011;75;48.784;9.364;2022-11-15T14:12:57;10.63;;;4.87;;
173;SDS011;75;48.784;9.364;2022-11-15T14:17:52;10.30;;;4.63;;
173;SDS011;75;48.784;9.364;2022-11-15T14:22:54;8.50;;;5.10;;
173;SDS011;75;48.784;9.364;2022-11-15T14:25:26;8.47;;;4.37;;
173;SDS011;75;48.784;9.364;2022-11-15T14:28:13;9.57;;;4.67;;
173;SDS011;75;48.784;9.364;2022-11-15T14:30:42;8.57;;;4.77;;
173;SDS011;75;48.784;9.364;2022-11-15T14:33:17;7.13;;;4.40;;
173;SDS011;75;48.784;9.364;2022-11-15T14:35:45;15.30;;;5.53;;
173;SDS011;75;48.784;9.364;2022-11-15T14:38:13;8.77;;;4.50;;
173;SDS011;75;48.784;9.364;2022-11-15T14:40:40;7.43;;;4.20;;
173;SDS011;75;48.784;9.364;2022-11-15T14:43:10;6.33;;;4.00;;
173;SDS011;75;48.784;9.364;2022-11-15T14:45:38;7.07;;;4.27;;
173;SDS011;75;48.784;9.364;2022-11-15T14:48:05;7.60;;;4.50;;
173;SDS011;75;48.784;9.364;2022-11-15T14:50:33;7.47;;;4.37;;
173;SDS011;75;48.784;9.364;2022-11-15T14:53:01;6.10;;;4.43;;
173;SDS011;75;48.784;9.364;2022-11-15T14:55:32;10.57;;;3.97;;
173;SDS011;75;48.784;9.364;2022-11-15T14:58:03;7.73;;;4.87;;
173;SDS011;75;48.784;9.364;2022-11-15T15:00:30;12.90;;;7.43;;
173;SDS011;75;48.784;9.364;2022-11-15T15:02:58;16.90;;;8.40;;
173;SDS011;75;48.784;9.364;2022-11-15T15:05:36;10.77;;;7.70;;
173;SDS011;75;48.784;9.364;2022-11-15T15:08:03;12.40;;;8.17;;
173;SDS011;75;48.784;9.364;2022-11-15T15:10:32;12.13;;;7.83;;
173;SDS011;75;48.784;9.364;2022-11-15T15:13:00;11.80;;;8.57;;
173;SDS011;75;48.784;9.364;2022-11-15T15:15:32;16.87;;;9.10;;
173;SDS011;75;48.784;9.364;2022-11-15T15:18:00;14.10;;;8.97;;
173;SDS011;75;48.784;9.364;2022-11-15T15:20:27;19.60;;;9.10;;
173;SDS011;75;48.784;9.364;2022-11-15T15:22:55;17.00;;;9.60;;
173;SDS011;75;48.784;9.364;2022-11-15T15:25:23;15.93;;;10.53;;
173;SDS011;75;48.784;9.364;2022-11-15T15:27:53;16.50;;;11.37;;
173;SDS011;75;48.784;9.364;2022-11-15T15:30:21;15.40;;;10.60;;
173;SDS011;75;48.784;9.364;2022-11-15T15:32:49;9.87;;;6.53;;
173;SDS011;75;48.784;9.364;2022-11-15T15:35:17;10.30;;;6.27;;
173;SDS011;75;48.784;9.364;2022-11-15T15:37:45;11.33;;;6.40;;
173;SDS011;75;48.784;9.364;2022-11-15T15:40:17;8.27;;;5.70;;
173;SDS011;75;48.784;9.364;2022-11-15T15:42:44;8.90;;;5.17;;
173;SDS011;75;48.784;9.364;2022-11-15T15:45:11;8.83;;;5.70;;
173;SDS011;75;48.784;9.364;2022-11-15T15:47:39;8.97;;;5.83;;
173;SDS011;75;48.784;9.364;2022-11-15T15:50:23;9.90;;;5.80;;
173;SDS011;75;48.784;9.364;2022-11-15T15:52:50;13.00;;;6.40;;
173;SDS011;75;48.784;9.364;2022-11-15T15:55:18;8.87;;;5.77;;
173;SDS011;75;48.784;9.364;2022-11-15T15:57:46;9.90;;;5.70;;
173;SDS011;75;48.784;9.364;2022-11-15T16:00:13;10.80;;;5.17;;
173;SDS011;75;48.784;9.364;2022-11-15T16:02:40;9.40;;;5.63;;
173;SDS011;75;48.784;9.364;2022-11-15T16:05:08;9.80;;;5.20;;
173;SDS011;75;48.784;9.364;2022-11-15T16:07:36;8.90;;;5.00;;
173;SDS011;75;48.784;9.364;2022-11-15T16:10:17;9.20;;;5.10;;
173;SDS011;75;48.784;9.364;2022-11-15T16:12:45;8.50;;;5.00;;
173;SDS011;75;48.784;9.364;2022-11-15T16:15:12;8.07;;;4.90;;
173;SDS011;75;48.784;9.364;2022-11-15T16:17:44;7.63;;;4.90;;
173;SDS011;75;48.784;9.364;2022-11-15T16:22:48;6.50;;;4.50;;
173;SDS011;75;48.784;9.364;2022-11-15T16:25:16;10.97;;;6.37;;
173;SDS011;75;48.784;9.364;2022-11-15T16:27:43;10.07;;;5.70;;
173;SDS011;75;48.784;9.364;2022-11-15T16:30:14;8.53;;;5.10;;
173;SDS011;75;48.784;9.364;2022-11-15T16:32:42;6.47;;;4.53;;
173;SDS011;75;48.784;9.364;2022-11-15T16:35:13;7.40;;;4.43;;
173;SDS011;75;48.784;9.364;2022-11-15T16:37:40;6.73;;;4.00;;
173;SDS011;75;48.784;9.364;2022-11-15T16:40:15;6.37;;;4.00;;
173;SDS011;75;48.784;9.364;2022-11-15T16:42:44;6.93;;;4.53;;
173;SDS011;75;48.784;9.364;2022-11-15T16:45:12;6.77;;;4.40;;
173;SDS011;75;48.784;9.364;2022-11-15T16:47:39;7.20;;;4.33;;
173;SDS011;75;48.784;9.364;2022-11-15T16:50:13;7.30;;;4.53;;
173;SDS011;75;48.784;9.364;2022-11-15T16:52:45;8.87;;;4.53;;
173;SDS011;75;48.784;9.364;2022-11-15T16:55:13;7.30;;;4.50;;
173;SDS011;75;48.784;9.364;2022-11-15T16:57:40;8.93;;;4.93;;
173;SDS011;75;48.784;9.364;2022-11-15T17:00:09;9.03;;;4.93;;
173;SDS011;75;48.784;9.364;2022-11-15T17:02:37;7.50;;;4.30;;
173;SDS011;75;48.784;9.364;2022-11-15T17:05:04;7.10;;;4.47;;
173;SDS011;75;48.784;9.364;2022-11-15T17:07:32;7.70;;;4.50;;
173;SDS011;75;48.784;9.364;2022-11-15T17:09:59;6.70;;;4.60;;
173;SDS011;75;48.784;9.364;2022-11-15T17:12:27;12.57;;;5.13;;
173;SDS011;75;48.784;9.364;2022-11-15T17:14:56;7.10;;;4.90;;
173;SDS011;75;48.784;9.364;2022-11-15T17:17:23;10.63;;;5.30;;
173;SDS011;75;48.784;9.364;2022-11-15T17:19:52;8.27;;;4.83;;
173;SDS011;75;48.784;9.364;2022-11-15T17:22:19;8.60;;;5.03;;
173;SDS011;75;48.784;9.364;2022-11-15T17:24:46;12.20;;;6.20;;
173;SDS011;75;48.784;9.364;2022-11-15T17:27:14;12.63;;;6.60;;
173;SDS011;75;48.784;9.364;2022-11-15T17:29:42;11.80;;;5.93;;
173;SDS011;75;48.784;9.364;2022-11-15T17:32:09;13.17;;;7.50;;
173;SDS011;75;48.784;9.364;2022-11-15T17:34:36;12.27;;;7.10;;
173;SDS011;75;48.784;9.364;2022-11-15T17:37:04;12.20;;;5.70;;
173;SDS011;75;48.784;9.364;2022-11-15T17:39:31;9.47;;;5.90;;
173;SDS011;75;48.784;9.364;2022-11-15T17:41:58;8.43;;;5.80;;
173;SDS011;75;48.784;9.364;2022-11-15T17:57:45;11.43;;;5.93;;
173;SDS011;75;48.784;9.364;2022-11-15T18:00:12;9.13;;;5.57;;
173;SDS011;75;48.784;9.364;2022-11-15T18:02:40;9.50;;;5.60;;
173;SDS011;75;48.784;9.364;2022-11-15T18:05:07;11.17;;;5.80;;
173;SDS011;75;48.784;9.364;2022-11-15T18:07:35;10.80;;;6.40;;
173;SDS011;75;48.784;9.364;2022-11-15T18:10:02;8.93;;;5.53;;
173;SDS011;75;48.784;9.364;2022-11-15T18:12:30;11.03;;;6.43;;
173;SDS011;75;48.784;9.364;2022-11-15T18:14:57;10.63;;;5.97;;
173;SDS011;75;48.784;9.364;2022-11-15T18:17:25;10.57;;;6.30;;
173;SDS011;75;48.784;9.364;2022-11-15T18:19:53;10.27;;;6.63;;
173;SDS011;75;48.784;9.364;2022-11-15T18:22:20;11.20;;;6.40;;